sensor_id;sensor_type;location;lat;lon;timestamp;pressure;altitude;pressure_sealevel;temperature;humidity
56340;BME280;42243;42.644;23.366;2022-07-09T00:00:24;94494.28;;;20.63;71.43
56340;BME280;42243;42.644;23.366;2022-07-09T00:02:49;94472.28;;;20.52;71.37
56340;BME280;42243;42.644;23.366;2022-07-09T00:05:14;94484.75;;;20.77;70.75
56340;BME280;42243;42.644;23.366;2022-07-09T00:07:40;94486.59;;;20.72;71.37
56340;BME280;42243;42.644;23.366;2022-07-09T00:10:06;94489.00;;;20.84;70.62
56340;BME280;42243;42.644;23.366;2022-07-09T00:12:31;94431.72;;;20.26;71.74
56340;BME280;42243;42.644;23.366;2022-07-09T00:14:57;94477.34;;;20.59;71.72
56340;BME280;42243;42.644;23.366;2022-07-09T00:17:22;94477.88;;;20.66;71.87
56340;BME280;42243;42.644;23.366;2022-07-09T00:19:48;94394.91;;;20.09;71.52
56340;BME280;42243;42.644;23.366;2022-07-09T00:22:13;94470.16;;;20.54;72.03
56340;BME280;42243;42.644;23.366;2022-07-09T00:24:38;94479.41;;;20.52;72.13
56340;BME280;42243;42.644;23.366;2022-07-09T00:27:04;94484.16;;;20.50;72.40
56340;BME280;42243;42.644;23.366;2022-07-09T00:29:30;94480.00;;;20.64;72.01
56340;BME280;42243;42.644;23.366;2022-07-09T00:31:55;94475.78;;;20.68;71.03
56340;BME280;42243;42.644;23.366;2022-07-09T00:34:20;94474.13;;;20.47;72.22
56340;BME280;42243;42.644;23.366;2022-07-09T00:36:46;94387.22;;;19.97;71.52
56340;BME280;42243;42.644;23.366;2022-07-09T00:39:11;94465.69;;;20.65;71.38
56340;BME280;42243;42.644;23.366;2022-07-09T00:41:37;94478.91;;;20.55;72.29
56340;BME280;42243;42.644;23.366;2022-07-09T00:44:02;94466.72;;;20.49;72.27
56340;BME280;42243;42.644;23.366;2022-07-09T00:46:28;94293.47;;;19.47;71.33
56340;BME280;42243;42.644;23.366;2022-07-09T00:48:53;94464.56;;;20.46;71.54
56340;BME280;42243;42.644;23.366;2022-07-09T00:51:19;94465.63;;;20.34;71.37
56340;BME280;42243;42.644;23.366;2022-07-09T00:53:46;94389.56;;;19.84;72.07
56340;BME280;42243;42.644;23.366;2022-07-09T00:56:13;94459.25;;;20.25;72.02
56340;BME280;42243;42.644;23.366;2022-07-09T00:58:42;94453.94;;;20.10;72.02
56340;BME280;42243;42.644;23.366;2022-07-09T01:01:07;94422.09;;;19.79;72.99
56340;BME280;42243;42.644;23.366;2022-07-09T01:03:33;94434.25;;;19.80;72.88
56340;BME280;42243;42.644;23.366;2022-07-09T01:05:58;94449.16;;;20.07;73.14
56340;BME280;42243;42.644;23.366;2022-07-09T01:08:25;94443.31;;;19.94;72.70
56340;BME280;42243;42.644;23.366;2022-07-09T01:10:51;94451.22;;;19.84;73.02
56340;BME280;42243;42.644;23.366;2022-07-09T01:13:16;94439.28;;;19.76;73.04
56340;BME280;42243;42.644;23.366;2022-07-09T01:15:42;94453.28;;;19.72;73.22
56340;BME280;42243;42.644;23.366;2022-07-09T01:18:11;94442.06;;;19.54;73.73
56340;BME280;42243;42.644;23.366;2022-07-09T01:20:37;94376.91;;;19.23;73.66
56340;BME280;42243;42.644;23.366;2022-07-09T01:23:02;94330.28;;;19.01;73.88
56340;BME280;42243;42.644;23.366;2022-07-09T01:25:37;94439.28;;;19.76;73.81
56340;BME280;42243;42.644;23.366;2022-07-09T01:28:04;94436.28;;;19.62;73.99
56340;BME280;42243;42.644;23.366;2022-07-09T01:30:31;94368.41;;;19.10;73.93
56340;BME280;42243;42.644;23.366;2022-07-09T01:32:57;94433.53;;;19.42;74.38
56340;BME280;42243;42.644;23.366;2022-07-09T01:35:22;94378.19;;;19.15;74.67
56340;BME280;42243;42.644;23.366;2022-07-09T01:37:48;94434.66;;;19.51;74.38
56340;BME280;42243;42.644;23.366;2022-07-09T01:40:13;94373.44;;;19.17;74.15
56340;BME280;42243;42.644;23.366;2022-07-09T01:42:39;94416.59;;;19.38;74.37
56340;BME280;42243;42.644;23.366;2022-07-09T01:45:05;94429.31;;;19.41;74.66
56340;BME280;42243;42.644;23.366;2022-07-09T01:47:31;94412.63;;;19.35;74.34
56340;BME280;42243;42.644;23.366;2022-07-09T01:49:57;94399.63;;;19.24;74.74
56340;BME280;42243;42.644;23.366;2022-07-09T01:52:22;94414.50;;;19.40;74.46
56340;BME280;42243;42.644;23.366;2022-07-09T01:54:47;94427.81;;;19.55;73.87
56340;BME280;42243;42.644;23.366;2022-07-09T01:57:13;94355.88;;;18.95;74.64
56340;BME280;42243;42.644;23.366;2022-07-09T01:59:38;94422.97;;;19.42;74.14
56340;BME280;42243;42.644;23.366;2022-07-09T02:02:04;94395.09;;;19.14;74.31
56340;BME280;42243;42.644;23.366;2022-07-09T02:04:30;94435.59;;;19.30;74.80
56340;BME280;42243;42.644;23.366;2022-07-09T02:06:56;94422.38;;;19.30;74.62
56340;BME280;42243;42.644;23.366;2022-07-09T02:09:21;94440.00;;;19.61;73.57
56340;BME280;42243;42.644;23.366;2022-07-09T02:11:47;94436.22;;;19.47;73.86
56340;BME280;42243;42.644;23.366;2022-07-09T02:14:13;94442.34;;;19.53;73.81
56340;BME280;42243;42.644;23.366;2022-07-09T02:16:39;94441.28;;;19.54;73.90
56340;BME280;42243;42.644;23.366;2022-07-09T02:19:04;94383.22;;;19.16;74.30
56340;BME280;42243;42.644;23.366;2022-07-09T02:21:31;94390.09;;;19.17;73.68
56340;BME280;42243;42.644;23.366;2022-07-09T02:23:57;94354.28;;;18.89;73.81
56340;BME280;42243;42.644;23.366;2022-07-09T02:26:27;94450.75;;;19.45;74.06
56340;BME280;42243;42.644;23.366;2022-07-09T02:28:57;94441.13;;;19.23;74.24
56340;BME280;42243;42.644;23.366;2022-07-09T02:31:23;94455.66;;;19.26;74.23
56340;BME280;42243;42.644;23.366;2022-07-09T02:33:49;94455.19;;;19.34;73.78
56340;BME280;42243;42.644;23.366;2022-07-09T02:36:14;94384.69;;;18.97;74.09
56340;BME280;42243;42.644;23.366;2022-07-09T02:38:40;94449.69;;;19.46;73.41
56340;BME280;42243;42.644;23.366;2022-07-09T02:41:05;94451.56;;;19.45;73.62
56340;BME280;42243;42.644;23.366;2022-07-09T02:43:31;94403.44;;;18.95;73.76
56340;BME280;42243;42.644;23.366;2022-07-09T02:45:57;94401.13;;;19.04;73.67
56340;BME280;42243;42.644;23.366;2022-07-09T02:48:23;94452.34;;;19.40;73.66
56340;BME280;42243;42.644;23.366;2022-07-09T02:50:50;94459.44;;;19.35;73.16
56340;BME280;42243;42.644;23.366;2022-07-09T02:53:15;94466.88;;;19.43;73.50
56340;BME280;42243;42.644;23.366;2022-07-09T02:55:41;94470.31;;;19.44;73.17
56340;BME280;42243;42.644;23.366;2022-07-09T02:58:06;94472.69;;;19.45;73.04
56340;BME280;42243;42.644;23.366;2022-07-09T03:00:32;94444.75;;;19.12;73.67
56340;BME280;42243;42.644;23.366;2022-07-09T03:02:57;94383.75;;;18.76;73.25
56340;BME280;42243;42.644;23.366;2022-07-09T03:05:23;94430.72;;;19.06;73.03
56340;BME280;42243;42.644;23.366;2022-07-09T03:07:48;94472.41;;;19.41;72.75
56340;BME280;42243;42.644;23.366;2022-07-09T03:10:14;94472.66;;;19.40;73.35
56340;BME280;42243;42.644;23.366;2022-07-09T03:12:39;94430.44;;;19.02;73.10
56340;BME280;42243;42.644;23.366;2022-07-09T03:15:06;94483.28;;;19.50;72.95
56340;BME280;42243;42.644;23.366;2022-07-09T03:17:32;94369.72;;;18.75;72.76
56340;BME280;42243;42.644;23.366;2022-07-09T03:19:57;94384.88;;;18.80;72.64
56340;BME280;42243;42.644;23.366;2022-07-09T03:22:23;94472.59;;;19.25;73.38
56340;BME280;42243;42.644;23.366;2022-07-09T03:24:48;94477.38;;;19.33;72.69
56340;BME280;42243;42.644;23.366;2022-07-09T03:27:14;94435.94;;;18.96;73.18
56340;BME280;42243;42.644;23.366;2022-07-09T03:29:39;94393.00;;;18.78;73.18
56340;BME280;42243;42.644;23.366;2022-07-09T03:32:05;94478.13;;;19.23;73.08
56340;BME280;42243;42.644;23.366;2022-07-09T03:34:31;94459.09;;;19.21;73.14
56340;BME280;42243;42.644;23.366;2022-07-09T03:36:56;94471.22;;;19.22;73.77
56340;BME280;42243;42.644;23.366;2022-07-09T03:39:22;94472.59;;;19.30;73.44
56340;BME280;42243;42.644;23.366;2022-07-09T03:41:47;94470.84;;;19.46;73.50
56340;BME280;42243;42.644;23.366;2022-07-09T03:44:13;94368.84;;;18.97;72.75
56340;BME280;42243;42.644;23.366;2022-07-09T03:46:38;94456.84;;;19.50;72.53
56340;BME280;42243;42.644;23.366;2022-07-09T03:49:03;94471.19;;;19.59;72.07
56340;BME280;42243;42.644;23.366;2022-07-09T03:51:29;94418.38;;;19.22;72.53
56340;BME280;42243;42.644;23.366;2022-07-09T03:53:54;94459.47;;;19.45;72.56
56340;BME280;42243;42.644;23.366;2022-07-09T03:56:20;94480.63;;;19.45;72.81
56340;BME280;42243;42.644;23.366;2022-07-09T03:58:45;94444.13;;;19.42;72.53
56340;BME280;42243;42.644;23.366;2022-07-09T04:01:11;94476.97;;;19.56;72.40
56340;BME280;42243;42.644;23.366;2022-07-09T04:03:36;94390.81;;;19.08;72.88
56340;BME280;42243;42.644;23.366;2022-07-09T04:06:02;94416.25;;;19.19;72.86
56340;BME280;42243;42.644;23.366;2022-07-09T04:08:27;94230.00;;;18.16;72.40
56340;BME280;42243;42.644;23.366;2022-07-09T04:10:54;94471.28;;;19.75;71.82
56340;BME280;42243;42.644;23.366;2022-07-09T04:13:19;94424.16;;;19.14;72.43
56340;BME280;42243;42.644;23.366;2022-07-09T04:15:44;94472.16;;;19.48;72.54
56340;BME280;42243;42.644;23.366;2022-07-09T04:18:11;94421.25;;;19.10;72.91
56340;BME280;42243;42.644;23.366;2022-07-09T04:20:36;94426.41;;;18.90;73.33
56340;BME280;42243;42.644;23.366;2022-07-09T04:23:02;94490.13;;;19.41;73.13
56340;BME280;42243;42.644;23.366;2022-07-09T04:25:27;94487.44;;;19.36;73.28
56340;BME280;42243;42.644;23.366;2022-07-09T04:27:52;94481.13;;;19.37;73.62
56340;BME280;42243;42.644;23.366;2022-07-09T04:30:18;94498.84;;;19.41;73.33
56340;BME280;42243;42.644;23.366;2022-07-09T04:32:43;94485.22;;;19.17;73.91
56340;BME280;42243;42.644;23.366;2022-07-09T04:35:09;94440.66;;;18.89;73.88
56340;BME280;42243;42.644;23.366;2022-07-09T04:37:34;94480.09;;;19.00;74.05
56340;BME280;42243;42.644;23.366;2022-07-09T04:39:59;94316.56;;;17.87;74.49
56340;BME280;42243;42.644;23.366;2022-07-09T04:42:25;94445.97;;;18.61;75.04
56340;BME280;42243;42.644;23.366;2022-07-09T04:44:50;94447.75;;;18.56;75.36
56340;BME280;42243;42.644;23.366;2022-07-09T04:47:16;94476.59;;;18.95;75.10
56340;BME280;42243;42.644;23.366;2022-07-09T04:49:41;94464.00;;;19.07;75.35
56340;BME280;42243;42.644;23.366;2022-07-09T04:52:07;94482.88;;;19.21;74.79
56340;BME280;42243;42.644;23.366;2022-07-09T04:54:32;94472.72;;;19.08;74.58
56340;BME280;42243;42.644;23.366;2022-07-09T04:56:58;94476.44;;;19.12;74.77
56340;BME280;42243;42.644;23.366;2022-07-09T04:59:23;94408.19;;;18.61;74.80
56340;BME280;42243;42.644;23.366;2022-07-09T05:01:49;94418.44;;;18.85;74.50
56340;BME280;42243;42.644;23.366;2022-07-09T05:04:15;94457.97;;;19.12;74.20
56340;BME280;42243;42.644;23.366;2022-07-09T05:06:41;94483.22;;;19.35;74.48
56340;BME280;42243;42.644;23.366;2022-07-09T05:09:07;94487.63;;;19.24;74.06
56340;BME280;42243;42.644;23.366;2022-07-09T05:11:33;94396.47;;;18.47;74.45
56340;BME280;42243;42.644;23.366;2022-07-09T05:13:59;94501.78;;;19.08;75.16
56340;BME280;42243;42.644;23.366;2022-07-09T05:16:24;94501.66;;;19.25;74.40
56340;BME280;42243;42.644;23.366;2022-07-09T05:18:49;94449.78;;;18.76;74.46
56340;BME280;42243;42.644;23.366;2022-07-09T05:21:15;94442.50;;;18.88;74.20
56340;BME280;42243;42.644;23.366;2022-07-09T05:23:40;94429.38;;;18.66;74.98
56340;BME280;42243;42.644;23.366;2022-07-09T05:26:06;94450.72;;;18.92;74.72
56340;BME280;42243;42.644;23.366;2022-07-09T05:28:31;94504.84;;;19.27;74.36
56340;BME280;42243;42.644;23.366;2022-07-09T05:30:57;94510.97;;;19.37;73.89
56340;BME280;42243;42.644;23.366;2022-07-09T05:33:22;94510.53;;;19.51;74.04
56340;BME280;42243;42.644;23.366;2022-07-09T05:35:47;94417.66;;;18.89;74.38
56340;BME280;42243;42.644;23.366;2022-07-09T05:38:13;94505.34;;;19.24;74.38
56340;BME280;42243;42.644;23.366;2022-07-09T05:40:38;94496.44;;;18.97;74.09
56340;BME280;42243;42.644;23.366;2022-07-09T05:43:04;94442.16;;;18.79;74.12
56340;BME280;42243;42.644;23.366;2022-07-09T05:45:29;94498.28;;;18.97;74.54
56340;BME280;42243;42.644;23.366;2022-07-09T05:47:55;94464.00;;;19.07;73.85
56340;BME280;42243;42.644;23.366;2022-07-09T05:50:20;94478.72;;;18.93;74.20
56340;BME280;42243;42.644;23.366;2022-07-09T05:52:46;94464.41;;;18.89;74.48
56340;BME280;42243;42.644;23.366;2022-07-09T05:55:13;94509.00;;;19.17;74.53
56340;BME280;42243;42.644;23.366;2022-07-09T05:57:38;94467.44;;;18.75;74.46
56340;BME280;42243;42.644;23.366;2022-07-09T06:00:04;94479.97;;;18.85;73.95
56340;BME280;42243;42.644;23.366;2022-07-09T06:02:30;94517.38;;;19.04;74.47
56340;BME280;42243;42.644;23.366;2022-07-09T06:04:56;94498.53;;;18.95;73.79
56340;BME280;42243;42.644;23.366;2022-07-09T06:07:21;94449.94;;;18.64;73.83
56340;BME280;42243;42.644;23.366;2022-07-09T06:09:46;94457.09;;;18.96;73.74
56340;BME280;42243;42.644;23.366;2022-07-09T06:12:12;94536.91;;;19.40;73.61
56340;BME280;42243;42.644;23.366;2022-07-09T06:14:37;94480.50;;;19.25;73.49
56340;BME280;42243;42.644;23.366;2022-07-09T06:17:03;94493.63;;;19.09;73.84
56340;BME280;42243;42.644;23.366;2022-07-09T06:19:35;94529.41;;;19.27;73.91
56340;BME280;42243;42.644;23.366;2022-07-09T06:22:02;94534.31;;;19.08;74.12
56340;BME280;42243;42.644;23.366;2022-07-09T06:24:28;94515.41;;;19.27;74.32
56340;BME280;42243;42.644;23.366;2022-07-09T06:26:55;94529.13;;;19.24;74.58
56340;BME280;42243;42.644;23.366;2022-07-09T06:29:20;94508.22;;;19.22;74.28
56340;BME280;42243;42.644;23.366;2022-07-09T06:31:46;94540.97;;;19.16;74.60
56340;BME280;42243;42.644;23.366;2022-07-09T06:34:12;94456.72;;;18.55;74.36
56340;BME280;42243;42.644;23.366;2022-07-09T06:36:38;94522.25;;;19.23;73.76
56340;BME280;42243;42.644;23.366;2022-07-09T06:39:04;94543.66;;;19.21;74.06
56340;BME280;42243;42.644;23.366;2022-07-09T06:41:48;94521.03;;;18.98;73.95
56340;BME280;42243;42.644;23.366;2022-07-09T06:44:13;94521.75;;;18.93;73.85
56340;BME280;42243;42.644;23.366;2022-07-09T06:46:38;94497.19;;;18.88;74.05
56340;BME280;42243;42.644;23.366;2022-07-09T06:49:04;94536.56;;;19.27;73.45
56340;BME280;42243;42.644;23.366;2022-07-09T06:51:30;94543.47;;;19.33;73.74
56340;BME280;42243;42.644;23.366;2022-07-09T06:53:55;94502.22;;;18.94;73.79
56340;BME280;42243;42.644;23.366;2022-07-09T06:56:21;94530.97;;;19.23;73.22
56340;BME280;42243;42.644;23.366;2022-07-09T06:58:47;94538.28;;;19.11;74.21
56340;BME280;42243;42.644;23.366;2022-07-09T07:01:13;94457.09;;;18.69;73.70
56340;BME280;42243;42.644;23.366;2022-07-09T07:03:38;94476.97;;;18.76;74.43
56340;BME280;42243;42.644;23.366;2022-07-09T07:06:04;94517.81;;;19.28;73.53
56340;BME280;42243;42.644;23.366;2022-07-09T07:08:29;94544.63;;;19.47;73.09
56340;BME280;42243;42.644;23.366;2022-07-09T07:10:55;94464.19;;;18.95;73.27
56340;BME280;42243;42.644;23.366;2022-07-09T07:13:20;94514.09;;;19.29;73.25
56340;BME280;42243;42.644;23.366;2022-07-09T07:15:45;94464.97;;;18.91;73.35
56340;BME280;42243;42.644;23.366;2022-07-09T07:18:17;94518.38;;;19.35;73.70
56340;BME280;42243;42.644;23.366;2022-07-09T07:20:43;94535.53;;;19.33;72.88
56340;BME280;42243;42.644;23.366;2022-07-09T07:23:08;94541.22;;;19.52;73.01
56340;BME280;42243;42.644;23.366;2022-07-09T07:25:34;94534.53;;;19.39;73.36
56340;BME280;42243;42.644;23.366;2022-07-09T07:27:59;94543.91;;;19.62;72.68
56340;BME280;42243;42.644;23.366;2022-07-09T07:30:26;94535.72;;;19.64;73.12
56340;BME280;42243;42.644;23.366;2022-07-09T07:32:52;94539.19;;;19.27;73.06
56340;BME280;42243;42.644;23.366;2022-07-09T07:35:17;94534.13;;;19.62;72.85
56340;BME280;42243;42.644;23.366;2022-07-09T07:37:42;94542.69;;;19.75;72.68
56340;BME280;42243;42.644;23.366;2022-07-09T07:40:08;94499.25;;;19.66;72.80
56340;BME280;42243;42.644;23.366;2022-07-09T07:42:34;94529.28;;;19.97;72.38
56340;BME280;42243;42.644;23.366;2022-07-09T07:44:59;94525.84;;;19.96;71.80
56340;BME280;42243;42.644;23.366;2022-07-09T07:47:25;94502.03;;;19.96;71.62
56340;BME280;42243;42.644;23.366;2022-07-09T07:49:50;94523.09;;;20.34;71.43
56340;BME280;42243;42.644;23.366;2022-07-09T07:52:17;94542.94;;;20.36;70.90
56340;BME280;42243;42.644;23.366;2022-07-09T07:54:42;94447.94;;;19.67;69.05
56340;BME280;42243;42.644;23.366;2022-07-09T07:57:07;94449.06;;;19.71;69.62
56340;BME280;42243;42.644;23.366;2022-07-09T07:59:33;94542.41;;;20.39;70.33
56340;BME280;42243;42.644;23.366;2022-07-09T08:01:58;94476.41;;;20.07;69.83
56340;BME280;42243;42.644;23.366;2022-07-09T08:04:24;94539.59;;;20.82;69.70
56340;BME280;42243;42.644;23.366;2022-07-09T08:06:49;94506.50;;;20.85;68.51
56340;BME280;42243;42.644;23.366;2022-07-09T08:09:14;94484.78;;;20.83;67.41
56340;BME280;42243;42.644;23.366;2022-07-09T08:11:40;94466.16;;;20.41;68.70
56340;BME280;42243;42.644;23.366;2022-07-09T08:14:05;94512.50;;;20.34;69.44
56340;BME280;42243;42.644;23.366;2022-07-09T08:16:32;94471.44;;;20.26;69.00
56340;BME280;42243;42.644;23.366;2022-07-09T08:18:57;94473.56;;;20.24;69.22
56340;BME280;42243;42.644;23.366;2022-07-09T08:21:23;94473.56;;;20.39;69.46
56340;BME280;42243;42.644;23.366;2022-07-09T08:23:48;94475.19;;;20.51;69.09
56340;BME280;42243;42.644;23.366;2022-07-09T08:26:18;94461.41;;;20.38;69.13
56340;BME280;42243;42.644;23.366;2022-07-09T08:28:44;94531.41;;;20.89;69.13
56340;BME280;42243;42.644;23.366;2022-07-09T08:31:09;94449.22;;;20.53;67.90
56340;BME280;42243;42.644;23.366;2022-07-09T08:33:34;94354.31;;;19.62;68.53
56340;BME280;42243;42.644;23.366;2022-07-09T08:36:00;94500.59;;;20.52;69.11
56340;BME280;42243;42.644;23.366;2022-07-09T08:38:25;94532.69;;;20.60;70.22
56340;BME280;42243;42.644;23.366;2022-07-09T08:40:53;94509.66;;;20.61;70.21
56340;BME280;42243;42.644;23.366;2022-07-09T08:43:18;94540.41;;;20.98;69.30
56340;BME280;42243;42.644;23.366;2022-07-09T08:45:45;94549.94;;;20.78;69.74
56340;BME280;42243;42.644;23.366;2022-07-09T08:48:10;94486.25;;;20.27;68.03
56340;BME280;42243;42.644;23.366;2022-07-09T08:50:36;94548.91;;;20.85;68.69
56340;BME280;42243;42.644;23.366;2022-07-09T08:53:02;94543.84;;;20.98;68.99
56340;BME280;42243;42.644;23.366;2022-07-09T08:55:28;94533.25;;;20.88;67.63
56340;BME280;42243;42.644;23.366;2022-07-09T08:57:55;94529.81;;;20.88;67.57
56340;BME280;42243;42.644;23.366;2022-07-09T09:00:20;94536.69;;;21.04;66.83
56340;BME280;42243;42.644;23.366;2022-07-09T09:02:46;94545.72;;;21.13;67.12
56340;BME280;42243;42.644;23.366;2022-07-09T09:05:15;94541.22;;;21.24;67.44
56340;BME280;42243;42.644;23.366;2022-07-09T09:07:41;94502.25;;;20.89;65.91
56340;BME280;42243;42.644;23.366;2022-07-09T09:10:07;94495.31;;;20.57;67.84
56340;BME280;42243;42.644;23.366;2022-07-09T09:12:33;94491.66;;;20.63;68.65
56340;BME280;42243;42.644;23.366;2022-07-09T09:14:59;94508.56;;;20.57;69.12
56340;BME280;42243;42.644;23.366;2022-07-09T09:17:25;94546.78;;;20.76;68.13
56340;BME280;42243;42.644;23.366;2022-07-09T09:19:50;94550.47;;;20.75;67.97
56340;BME280;42243;42.644;23.366;2022-07-09T09:22:17;94512.81;;;20.58;67.35
56340;BME280;42243;42.644;23.366;2022-07-09T09:24:43;94548.34;;;20.88;68.34
56340;BME280;42243;42.644;23.366;2022-07-09T09:27:08;94520.81;;;21.04;68.07
56340;BME280;42243;42.644;23.366;2022-07-09T09:29:34;94524.50;;;21.24;66.67
56340;BME280;42243;42.644;23.366;2022-07-09T09:32:11;94556.59;;;21.07;67.64
56340;BME280;42243;42.644;23.366;2022-07-09T09:34:37;94508.06;;;20.75;67.47
56340;BME280;42243;42.644;23.366;2022-07-09T09:37:02;94546.22;;;21.31;67.03
56340;BME280;42243;42.644;23.366;2022-07-09T09:39:29;94545.69;;;21.39;67.48
56340;BME280;42243;42.644;23.366;2022-07-09T09:41:59;94539.88;;;21.57;67.41
56340;BME280;42243;42.644;23.366;2022-07-09T09:44:26;94526.34;;;21.49;67.56
56340;BME280;42243;42.644;23.366;2022-07-09T09:46:55;94533.22;;;21.70;66.53
56340;BME280;42243;42.644;23.366;2022-07-09T09:49:21;94536.88;;;21.79;66.23
56340;BME280;42243;42.644;23.366;2022-07-09T09:52:06;94545.13;;;21.73;66.61
56340;BME280;42243;42.644;23.366;2022-07-09T09:54:34;94482.56;;;21.41;65.63
56340;BME280;42243;42.644;23.366;2022-07-09T09:57:02;94520.69;;;21.86;65.74
56340;BME280;42243;42.644;23.366;2022-07-09T09:59:30;94530.06;;;22.38;63.95
56340;BME280;42243;42.644;23.366;2022-07-09T10:01:55;94512.53;;;22.37;62.68
56340;BME280;42243;42.644;23.366;2022-07-09T10:04:21;94443.88;;;21.50;62.08
56340;BME280;42243;42.644;23.366;2022-07-09T10:06:46;94527.34;;;21.78;63.02
56340;BME280;42243;42.644;23.366;2022-07-09T10:09:13;94543.25;;;21.94;61.87
56340;BME280;42243;42.644;23.366;2022-07-09T10:11:49;94548.38;;;21.49;62.21
56340;BME280;42243;42.644;23.366;2022-07-09T10:14:32;94542.50;;;21.63;61.57
56340;BME280;42243;42.644;23.366;2022-07-09T10:19:36;94455.28;;;21.30;61.35
56340;BME280;42243;42.644;23.366;2022-07-09T10:22:02;94479.44;;;21.08;62.28
56340;BME280;42243;42.644;23.366;2022-07-09T10:27:08;94544.56;;;21.91;62.39
56340;BME280;42243;42.644;23.366;2022-07-09T10:29:35;94551.00;;;21.70;62.34
56340;BME280;42243;42.644;23.366;2022-07-09T10:32:01;94544.63;;;21.60;62.77
56340;BME280;42243;42.644;23.366;2022-07-09T10:34:43;94552.56;;;21.76;62.33
56340;BME280;42243;42.644;23.366;2022-07-09T10:37:09;94549.91;;;21.71;63.15
56340;BME280;42243;42.644;23.366;2022-07-09T10:39:35;94543.56;;;21.72;63.79
56340;BME280;42243;42.644;23.366;2022-07-09T10:42:06;94544.63;;;21.60;63.33
56340;BME280;42243;42.644;23.366;2022-07-09T10:44:36;94555.28;;;21.45;65.09
56340;BME280;42243;42.644;23.366;2022-07-09T10:47:05;94542.72;;;21.92;63.08
56340;BME280;42243;42.644;23.366;2022-07-09T10:49:33;94558.38;;;21.88;62.03
56340;BME280;42243;42.644;23.366;2022-07-09T10:51:59;94555.72;;;21.88;62.17
56340;BME280;42243;42.644;23.366;2022-07-09T10:54:25;94470.97;;;21.16;61.26
56340;BME280;42243;42.644;23.366;2022-07-09T10:56:52;94552.78;;;22.00;61.85
56340;BME280;42243;42.644;23.366;2022-07-09T10:59:18;94545.16;;;21.63;61.35
56340;BME280;42243;42.644;23.366;2022-07-09T11:01:44;94549.41;;;21.74;62.43
56340;BME280;42243;42.644;23.366;2022-07-09T11:04:09;94479.47;;;21.13;64.63
56340;BME280;42243;42.644;23.366;2022-07-09T11:06:47;94501.44;;;20.78;66.05
56340;BME280;42243;42.644;23.366;2022-07-09T11:09:13;94520.53;;;20.80;66.29
56340;BME280;42243;42.644;23.366;2022-07-09T11:11:41;94561.63;;;21.03;66.81
56340;BME280;42243;42.644;23.366;2022-07-09T11:14:07;94564.81;;;21.15;66.92
56340;BME280;42243;42.644;23.366;2022-07-09T11:16:32;94540.44;;;21.03;67.41
56340;BME280;42243;42.644;23.366;2022-07-09T11:18:57;94562.69;;;21.38;65.71
56340;BME280;42243;42.644;23.366;2022-07-09T11:21:24;94567.69;;;20.98;66.20
56340;BME280;42243;42.644;23.366;2022-07-09T11:23:49;94565.84;;;21.04;66.67
56340;BME280;42243;42.644;23.366;2022-07-09T11:26:15;94492.72;;;20.62;66.96
56340;BME280;42243;42.644;23.366;2022-07-09T11:28:40;94554.19;;;21.00;66.03
56340;BME280;42243;42.644;23.366;2022-07-09T11:31:06;94554.72;;;20.97;65.92
56340;BME280;42243;42.644;23.366;2022-07-09T11:33:32;94537.47;;;20.74;66.37
56340;BME280;42243;42.644;23.366;2022-07-09T11:36:19;94520.53;;;20.65;66.10
56340;BME280;42243;42.644;23.366;2022-07-09T11:38:47;94561.09;;;21.16;65.71
56340;BME280;42243;42.644;23.366;2022-07-09T11:41:12;94445.50;;;20.33;66.14
56340;BME280;42243;42.644;23.366;2022-07-09T11:43:38;94532.47;;;20.93;65.47
56340;BME280;42243;42.644;23.366;2022-07-09T11:46:03;94560.56;;;21.14;65.01
56340;BME280;42243;42.644;23.366;2022-07-09T11:48:29;94553.41;;;21.10;64.70
56340;BME280;42243;42.644;23.366;2022-07-09T11:50:54;94547.53;;;20.67;65.20
56340;BME280;42243;42.644;23.366;2022-07-09T11:53:21;94570.63;;;20.92;64.59
56340;BME280;42243;42.644;23.366;2022-07-09T11:55:57;94551.50;;;20.69;65.52
56340;BME280;42243;42.644;23.366;2022-07-09T11:58:24;94551.38;;;20.33;65.79
56340;BME280;42243;42.644;23.366;2022-07-09T12:00:49;94475.50;;;19.76;66.40
56340;BME280;42243;42.644;23.366;2022-07-09T12:03:23;94534.09;;;20.00;66.55
56340;BME280;42243;42.644;23.366;2022-07-09T12:05:50;94522.09;;;19.82;67.45
56340;BME280;42243;42.644;23.366;2022-07-09T12:08:28;94546.50;;;19.94;67.00
56340;BME280;42243;42.644;23.366;2022-07-09T12:10:59;94563.94;;;19.90;67.48
56340;BME280;42243;42.644;23.366;2022-07-09T12:13:25;94559.13;;;19.77;67.36
56340;BME280;42243;42.644;23.366;2022-07-09T12:15:50;94565.50;;;19.86;67.12
56340;BME280;42243;42.644;23.366;2022-07-09T12:18:16;94552.81;;;19.88;67.79
56340;BME280;42243;42.644;23.366;2022-07-09T12:20:42;94444.19;;;19.05;67.75
56340;BME280;42243;42.644;23.366;2022-07-09T12:23:07;94509.22;;;19.53;68.00
56340;BME280;42243;42.644;23.366;2022-07-09T12:25:33;94524.00;;;19.92;67.94
56340;BME280;42243;42.644;23.366;2022-07-09T12:27:58;94471.00;;;19.76;67.64
56340;BME280;42243;42.644;23.366;2022-07-09T12:30:23;94548.69;;;20.13;67.23
56340;BME280;42243;42.644;23.366;2022-07-09T12:32:49;94534.41;;;20.19;67.11
56340;BME280;42243;42.644;23.366;2022-07-09T12:35:15;94544.00;;;20.46;66.61
56340;BME280;42243;42.644;23.366;2022-07-09T12:37:41;94540.84;;;20.38;66.94
56340;BME280;42243;42.644;23.366;2022-07-09T12:40:08;94532.63;;;20.45;66.83
56340;BME280;42243;42.644;23.366;2022-07-09T12:42:35;94548.78;;;20.44;66.09
56340;BME280;42243;42.644;23.366;2022-07-09T12:45:01;94504.22;;;20.15;65.78
56340;BME280;42243;42.644;23.366;2022-07-09T12:47:26;94538.16;;;20.33;66.13
56340;BME280;42243;42.644;23.366;2022-07-09T12:49:52;94535.50;;;20.33;66.75